createdAt,value
2018-12-22T00:00:26.189Z,1001.88
2018-12-22T00:01:27.285Z,1001.92
2018-12-22T00:02:25.904Z,1001.86
2018-12-22T00:03:26.153Z,1001.84
2018-12-22T00:04:25.873Z,1001.83
2018-12-22T00:05:25.895Z,1001.82
2018-12-22T00:06:25.851Z,1001.86
2018-12-22T00:07:25.879Z,1001.86
2018-12-22T00:08:25.843Z,1001.90
2018-12-22T00:09:25.818Z,1001.83
2018-12-22T00:10:25.800Z,1001.84
2018-12-22T00:11:25.788Z,1001.85
2018-12-22T00:12:25.793Z,1001.86
2018-12-22T00:13:25.805Z,1001.85
2018-12-22T00:14:25.761Z,1001.85
2018-12-22T00:15:25.754Z,1001.85
2018-12-22T00:16:25.769Z,1001.84
2018-12-22T00:17:25.722Z,1001.90
2018-12-22T00:18:25.786Z,1001.86
2018-12-22T00:19:25.726Z,1001.85
2018-12-22T00:20:25.693Z,1001.88
2018-12-22T00:21:25.686Z,1001.96
2018-12-22T00:22:25.672Z,1001.96
2018-12-22T00:23:25.667Z,1001.93
2018-12-22T00:24:25.663Z,1001.98
2018-12-22T00:25:25.647Z,1001.99
2018-12-22T00:26:25.657Z,1002.01
2018-12-22T00:27:25.622Z,1002.03
2018-12-22T00:28:25.606Z,1002.01
2018-12-22T00:29:25.616Z,1002.00
2018-12-22T00:30:25.973Z,1002.02
2018-12-22T00:31:25.584Z,1002.11
2018-12-22T00:32:25.824Z,1002.05
2018-12-22T00:33:25.601Z,1002.04
2018-12-22T00:34:25.560Z,1002.08
2018-12-22T00:35:25.552Z,1002.04
2018-12-22T00:36:25.525Z,1002.00
2018-12-22T00:37:25.547Z,1002.03
2018-12-22T00:38:25.537Z,1001.97
2018-12-22T00:39:25.510Z,1001.98
2018-12-22T00:40:25.553Z,1001.91
2018-12-22T00:41:25.464Z,1001.91
2018-12-22T00:42:25.450Z,1001.89
2018-12-22T00:43:25.711Z,1001.87
2018-12-22T00:44:25.452Z,1001.90
2018-12-22T00:45:25.421Z,1001.92
2018-12-22T00:46:25.409Z,1001.96
2018-12-22T00:47:25.397Z,1001.92
2018-12-22T00:48:25.427Z,1001.96
2018-12-22T00:49:25.604Z,1002.02
2018-12-22T00:50:25.412Z,1002.01
2018-12-22T00:51:25.608Z,1002.04
2018-12-22T00:52:25.352Z,1002.07
2018-12-22T00:53:25.595Z,1001.98
2018-12-22T00:54:25.382Z,1002.04
2018-12-22T00:55:25.315Z,1002.08
2018-12-22T00:56:25.306Z,1002.10
2018-12-22T00:57:25.417Z,1002.02
2018-12-22T00:58:30.665Z,1002.07
2018-12-22T00:59:25.284Z,1002.01
2018-12-22T01:00:25.270Z,1002.03
2018-12-22T01:01:25.287Z,1002.05
2018-12-22T01:02:25.245Z,1002.01
2018-12-22T01:03:25.329Z,1002.01
2018-12-22T01:04:25.240Z,1002.07
2018-12-22T01:05:25.218Z,1002.01
2018-12-22T01:06:25.196Z,1001.98
2018-12-22T01:07:25.185Z,1002.02
2018-12-22T01:08:25.266Z,1002.07
2018-12-22T01:09:25.178Z,1002.04
2018-12-22T01:10:25.154Z,1001.98
2018-12-22T01:11:25.142Z,1002.01
2018-12-22T01:12:25.154Z,1002.03
2018-12-22T01:13:25.123Z,1002.01
2018-12-22T01:14:25.128Z,1002.01
2018-12-22T01:15:25.103Z,1002.04
2018-12-22T01:16:25.093Z,1002.06
2018-12-22T01:17:25.087Z,1002.00
2018-12-22T01:18:25.807Z,1002.00
2018-12-22T01:19:25.148Z,1001.99
2018-12-22T01:20:25.307Z,1002.00
2018-12-22T01:21:25.041Z,1002.04
2018-12-22T01:22:25.020Z,1002.02
2018-12-22T01:23:25.017Z,1002.05
2018-12-22T01:24:25.013Z,1002.07
2018-12-22T01:25:24.987Z,1002.02
2018-12-22T01:26:24.980Z,1002.02
2018-12-22T01:27:25.041Z,1002.03
2018-12-22T01:28:24.967Z,1002.07
2018-12-22T01:29:25.013Z,1002.01
2018-12-22T01:30:24.935Z,1002.00
2018-12-22T01:31:25.285Z,1002.06
2018-12-22T01:32:25.174Z,1002.03
2018-12-22T01:33:24.906Z,1002.09
2018-12-22T01:34:24.991Z,1002.04
2018-12-22T01:35:24.884Z,1002.02
2018-12-22T01:36:25.166Z,1002.02
2018-12-22T01:37:25.115Z,1002.01
2018-12-22T01:38:24.847Z,1002.02
2018-12-22T01:39:24.849Z,1002.00
2018-12-22T01:40:24.832Z,1002.02
2018-12-22T01:41:24.816Z,1001.97
2018-12-22T01:42:24.810Z,1002.04
2018-12-22T01:43:24.803Z,1002.02
2018-12-22T01:44:24.800Z,1002.00
2018-12-22T01:45:24.795Z,1001.96
2018-12-22T01:46:24.764Z,1001.99
2018-12-22T01:47:24.751Z,1002.00
2018-12-22T01:48:24.737Z,1002.04
2018-12-22T01:49:26.538Z,1002.10
2018-12-22T01:50:24.734Z,1002.01
2018-12-22T01:51:25.030Z,1002.06
2018-12-22T01:52:24.695Z,1002.03
2018-12-22T01:53:24.682Z,1002.06
2018-12-22T01:54:24.928Z,1002.06
2018-12-22T01:55:24.676Z,1002.01
2018-12-22T01:56:24.660Z,1002.02
2018-12-22T01:57:24.648Z,1001.95
2018-12-22T01:58:24.631Z,1001.92
2018-12-22T01:59:24.619Z,1001.88
2018-12-22T02:00:24.667Z,1001.87
2018-12-22T02:01:24.671Z,1001.82
2018-12-22T02:02:24.586Z,1001.87
2018-12-22T02:03:24.578Z,1001.75
2018-12-22T02:04:24.579Z,1001.75
2018-12-22T02:05:24.569Z,1001.65
2018-12-22T02:06:24.811Z,1001.68
2018-12-22T02:07:24.578Z,1001.62
2018-12-22T02:08:24.524Z,1001.68
2018-12-22T02:09:24.509Z,1001.67
2018-12-22T02:10:24.519Z,1001.71
2018-12-22T02:11:24.496Z,1001.74
2018-12-22T02:12:24.735Z,1001.77
2018-12-22T02:13:24.470Z,1001.78
2018-12-22T02:14:24.458Z,1001.85
2018-12-22T02:15:24.517Z,1001.82
2018-12-22T02:16:24.442Z,1001.91
2018-12-22T02:17:24.430Z,1001.93
2018-12-22T02:18:24.674Z,1001.91
2018-12-22T02:19:24.409Z,1001.91
2018-12-22T02:20:24.660Z,1001.90
2018-12-22T02:21:24.382Z,1001.90
2018-12-22T02:22:24.367Z,1001.90
2018-12-22T02:23:24.358Z,1001.94
2018-12-22T02:24:24.603Z,1001.98
2018-12-22T02:25:24.360Z,1001.94
2018-12-22T02:26:24.323Z,1001.89
2018-12-22T02:27:24.315Z,1001.83
2018-12-22T02:28:24.394Z,1001.82
2018-12-22T02:29:24.295Z,1001.74
2018-12-22T02:30:24.299Z,1001.73
2018-12-22T02:31:24.277Z,1001.74
2018-12-22T02:32:24.268Z,1001.72
2018-12-22T02:33:24.256Z,1001.69
2018-12-22T02:34:24.247Z,1001.70
2018-12-22T02:35:24.245Z,1001.66
2018-12-22T02:36:24.224Z,1001.62
2018-12-22T02:37:24.219Z,1001.60
2018-12-22T02:38:24.194Z,1001.57
2018-12-22T02:39:24.200Z,1001.55
2018-12-22T02:40:24.190Z,1001.55
2018-12-22T02:41:24.171Z,1001.53
2018-12-22T02:42:24.229Z,1001.54
2018-12-22T02:43:24.174Z,1001.55
2018-12-22T02:44:24.133Z,1001.51
2018-12-22T02:45:24.137Z,1001.53
2018-12-22T02:46:24.124Z,1001.53
2018-12-22T02:47:24.354Z,1001.59
2018-12-22T02:48:24.093Z,1001.57
2018-12-22T02:49:24.074Z,1001.60
2018-12-22T02:50:24.097Z,1001.51
2018-12-22T02:51:24.062Z,1001.61
2018-12-22T02:52:24.073Z,1001.60
2018-12-22T02:53:24.042Z,1001.66
2018-12-22T02:54:24.023Z,1001.60
2018-12-22T02:55:24.029Z,1001.55
2018-12-22T02:56:24.007Z,1001.56
2018-12-22T02:57:23.988Z,1001.53
2018-12-22T02:58:24.015Z,1001.50
2018-12-22T02:59:23.985Z,1001.52
2018-12-22T03:00:23.988Z,1001.55
2018-12-22T03:01:23.955Z,1001.57
2018-12-22T03:02:23.938Z,1001.58
2018-12-22T03:03:23.937Z,1001.59
2018-12-22T03:04:23.919Z,1001.47
2018-12-22T03:05:24.199Z,1001.47
2018-12-22T03:06:23.895Z,1001.45
2018-12-22T03:07:23.962Z,1001.44
2018-12-22T03:08:23.904Z,1001.41
2018-12-22T03:09:23.859Z,1001.40
2018-12-22T03:10:23.848Z,1001.38
2018-12-22T03:11:23.968Z,1001.37
2018-12-22T03:12:23.843Z,1001.37
2018-12-22T03:13:24.077Z,1001.43
2018-12-22T03:14:23.841Z,1001.36
2018-12-22T03:15:23.802Z,1001.37
2018-12-22T03:16:23.815Z,1001.36
2018-12-22T03:17:24.022Z,1001.32
2018-12-22T03:18:23.765Z,1001.34
2018-12-22T03:19:24.532Z,1001.31
2018-12-22T03:20:23.746Z,1001.33
2018-12-22T03:21:23.753Z,1001.27
2018-12-22T03:22:23.727Z,1001.27
2018-12-22T03:23:23.718Z,1001.22
2018-12-22T03:24:23.702Z,1001.25
2018-12-22T03:25:23.727Z,1001.22
2018-12-22T03:26:23.958Z,1001.25
2018-12-22T03:27:23.667Z,1001.27
2018-12-22T03:28:23.667Z,1001.30
2018-12-22T03:29:23.637Z,1001.24
2018-12-22T03:30:23.632Z,1001.16
2018-12-22T03:31:23.715Z,1001.18
2018-12-22T03:32:23.634Z,1001.22
2018-12-22T03:33:23.599Z,1001.18
2018-12-22T03:34:23.600Z,1001.12
2018-12-22T03:35:23.581Z,1001.23
2018-12-22T03:36:23.841Z,1001.18
2018-12-22T03:37:23.563Z,1001.20
2018-12-22T03:38:23.546Z,1001.21
2018-12-22T03:39:23.534Z,1001.16
2018-12-22T03:40:23.589Z,1001.20
2018-12-22T03:41:23.782Z,1001.14
2018-12-22T03:42:23.502Z,1001.09
2018-12-22T03:43:23.503Z,1001.11
2018-12-22T03:44:23.476Z,1001.13
2018-12-22T03:45:23.471Z,1001.21
2018-12-22T03:46:23.724Z,1001.21
2018-12-22T03:47:23.449Z,1001.21
2018-12-22T03:48:23.438Z,1001.12
2018-12-22T03:49:23.446Z,1001.11
2018-12-22T03:50:23.410Z,1001.13
2018-12-22T03:51:23.425Z,1001.18
2018-12-22T03:52:23.647Z,1001.15
2018-12-22T03:53:23.385Z,1001.03
2018-12-22T03:54:23.375Z,1001.03
2018-12-22T03:55:23.360Z,1001.06
2018-12-22T03:56:23.357Z,1001.08
2018-12-22T03:57:23.338Z,1001.09
2018-12-22T03:58:23.332Z,1001.05
2018-12-22T03:59:25.018Z,1001.06
2018-12-22T04:00:23.581Z,1001.00
2018-12-22T04:01:23.307Z,1001.04
2018-12-22T04:02:23.289Z,1001.01
2018-12-22T04:03:23.280Z,1001.00
2018-12-22T04:04:23.288Z,1001.01
2018-12-22T04:05:23.251Z,1001.05
2018-12-22T04:06:23.257Z,1001.02
2018-12-22T04:07:23.228Z,1000.90
2018-12-22T04:08:23.320Z,1001.03
2018-12-22T04:09:23.229Z,1001.00
2018-12-22T04:10:23.196Z,1001.06
2018-12-22T04:11:23.222Z,1001.00
2018-12-22T04:12:23.501Z,1001.04
2018-12-22T04:13:23.158Z,1001.03
2018-12-22T04:14:23.408Z,1001.08
2018-12-22T04:15:23.636Z,1001.02
2018-12-22T04:16:23.141Z,1001.09
2018-12-22T04:17:23.125Z,1001.03
2018-12-22T04:18:23.109Z,1000.98
2018-12-22T04:19:23.109Z,1001.17
2018-12-22T04:20:24.496Z,1001.11
2018-12-22T04:21:23.377Z,1001.05
2018-12-22T04:22:23.075Z,1001.26
2018-12-22T04:23:23.129Z,1001.15
2018-12-22T04:24:23.042Z,1001.07
2018-12-22T04:25:23.035Z,1001.14
2018-12-22T04:26:23.098Z,1001.12
2018-12-22T04:27:23.842Z,1001.25
2018-12-22T04:28:23.008Z,1001.17
2018-12-22T04:29:23.237Z,1001.17
2018-12-22T04:30:23.241Z,1001.07
2018-12-22T04:31:23.063Z,1001.09
2018-12-22T04:32:22.958Z,1001.15
2018-12-22T04:33:23.019Z,1001.10
2018-12-22T04:34:22.934Z,1001.14
2018-12-22T04:35:23.171Z,1001.15
2018-12-22T04:36:22.905Z,1001.12
2018-12-22T04:37:22.931Z,1001.07
2018-12-22T04:38:22.886Z,1001.13
2018-12-22T04:39:22.885Z,1001.09
2018-12-22T04:40:22.865Z,1001.05
2018-12-22T04:41:22.946Z,1001.05
2018-12-22T04:42:22.870Z,1001.13
2018-12-22T04:43:22.860Z,1001.13
2018-12-22T04:44:22.825Z,1001.08
2018-12-22T04:45:22.814Z,1001.21
2018-12-22T04:46:22.804Z,1001.20
2018-12-22T04:47:22.814Z,1001.23
2018-12-22T04:48:22.785Z,1001.22
2018-12-22T04:49:22.820Z,1001.22
2018-12-22T04:50:22.771Z,1001.21
2018-12-22T04:51:22.769Z,1001.27
2018-12-22T04:52:22.752Z,1001.31
2018-12-22T04:53:22.978Z,1001.28
2018-12-22T04:54:22.969Z,1001.24
2018-12-22T04:55:22.701Z,1001.23
2018-12-22T04:56:22.751Z,1001.18
2018-12-22T04:57:22.701Z,1001.27
2018-12-22T04:58:22.665Z,1001.25
2018-12-22T04:59:22.908Z,1001.23
2018-12-22T05:00:22.668Z,1001.18
2018-12-22T05:01:22.662Z,1001.16
2018-12-22T05:02:22.665Z,1001.27
2018-12-22T05:03:22.620Z,1001.25
2018-12-22T05:04:22.601Z,1001.31
2018-12-22T05:05:22.592Z,1001.27
2018-12-22T05:06:22.593Z,1001.25
2018-12-22T05:07:22.598Z,1001.32
2018-12-22T05:08:22.561Z,1001.39
2018-12-22T05:09:22.584Z,1001.36
2018-12-22T05:10:22.539Z,1001.33
2018-12-22T05:11:22.529Z,1001.33
2018-12-22T05:12:22.536Z,1001.40
2018-12-22T05:13:22.757Z,1001.44
2018-12-22T05:14:22.492Z,1001.57
2018-12-22T05:15:22.485Z,1001.57
2018-12-22T05:16:22.471Z,1001.46
2018-12-22T05:17:22.474Z,1001.51
2018-12-22T05:18:22.454Z,1001.49
2018-12-22T05:19:22.466Z,1001.56
2018-12-22T05:20:22.433Z,1001.56
2018-12-22T05:21:22.418Z,1001.43
2018-12-22T05:22:22.426Z,1001.48
2018-12-22T05:23:22.402Z,1001.49
2018-12-22T05:24:22.387Z,1001.46
2018-12-22T05:25:22.384Z,1001.54
2018-12-22T05:26:22.362Z,1001.62
2018-12-22T05:27:22.363Z,1001.56
2018-12-22T05:28:22.344Z,1001.59
2018-12-22T05:29:22.343Z,1001.64
2018-12-22T05:30:22.656Z,1001.59
2018-12-22T05:31:22.567Z,1001.65
2018-12-22T05:32:22.318Z,1001.64
2018-12-22T05:33:22.295Z,1001.63
2018-12-22T05:34:22.293Z,1001.56
2018-12-22T05:35:22.276Z,1001.65
2018-12-22T05:36:22.514Z,1001.62
2018-12-22T05:37:22.258Z,1001.64
2018-12-22T05:38:22.234Z,1001.78
2018-12-22T05:39:22.228Z,1001.66
2018-12-22T05:40:22.236Z,1001.61
2018-12-22T05:41:22.217Z,1001.76
2018-12-22T05:42:22.203Z,1001.76
2018-12-22T05:43:22.179Z,1001.70
2018-12-22T05:44:22.173Z,1001.63
2018-12-22T05:45:22.412Z,1001.69
2018-12-22T05:46:22.151Z,1001.65
2018-12-22T05:47:22.801Z,1001.67
2018-12-22T05:48:22.392Z,1001.71
2018-12-22T05:49:22.116Z,1001.68
2018-12-22T05:50:22.117Z,1001.74
2018-12-22T05:51:22.093Z,1001.73
2018-12-22T05:52:22.107Z,1001.75
2018-12-22T05:53:22.086Z,1001.80
2018-12-22T05:54:22.311Z,1001.79
2018-12-22T05:55:22.049Z,1001.72
2018-12-22T05:56:22.051Z,1001.73
2018-12-22T05:57:22.041Z,1001.89
2018-12-22T05:58:22.126Z,1001.70
2018-12-22T05:59:22.018Z,1001.79
2018-12-22T06:00:22.022Z,1001.78
2018-12-22T06:01:21.981Z,1001.80
2018-12-22T06:02:22.006Z,1001.93
2018-12-22T06:03:21.959Z,1001.93
2018-12-22T06:04:21.953Z,1001.86
2018-12-22T06:05:22.209Z,1001.87
2018-12-22T06:06:21.925Z,1002.04
2018-12-22T06:07:21.941Z,1002.01
2018-12-22T06:08:21.912Z,1002.11
2018-12-22T06:09:21.939Z,1002.01
2018-12-22T06:10:21.893Z,1002.05
2018-12-22T06:11:21.889Z,1002.02
2018-12-22T06:12:21.872Z,1002.06
2018-12-22T06:13:21.855Z,1002.07
2018-12-22T06:14:21.839Z,1002.09
2018-12-22T06:15:22.339Z,1002.24
2018-12-22T06:16:21.825Z,1002.08
2018-12-22T06:17:21.844Z,1002.05
2018-12-22T06:18:21.797Z,1002.20
2018-12-22T06:19:21.788Z,1002.13
2018-12-22T06:20:22.024Z,1002.09
2018-12-22T06:21:21.765Z,1002.14
2018-12-22T06:22:21.781Z,1002.17
2018-12-22T06:23:21.753Z,1002.12
2018-12-22T06:24:21.764Z,1002.29
2018-12-22T06:25:21.964Z,1002.31
2018-12-22T06:26:21.817Z,1002.12
2018-12-22T06:27:21.709Z,1002.19
2018-12-22T06:28:21.711Z,1002.23
2018-12-22T06:29:21.684Z,1002.22
2018-12-22T06:30:21.669Z,1002.18
2018-12-22T06:31:21.662Z,1002.28
2018-12-22T06:32:21.666Z,1002.32
2018-12-22T06:33:21.648Z,1002.38
2018-12-22T06:34:21.635Z,1002.40
2018-12-22T06:35:21.610Z,1002.37
2018-12-22T06:36:21.606Z,1002.45
2018-12-22T06:37:21.592Z,1002.54
2018-12-22T06:38:21.618Z,1002.55
2018-12-22T06:39:21.569Z,1002.51
2018-12-22T06:40:21.575Z,1002.67
2018-12-22T06:41:21.548Z,1002.59
2018-12-22T06:42:21.536Z,1002.64
2018-12-22T06:43:21.545Z,1002.58
2018-12-22T06:44:21.774Z,1002.66
2018-12-22T06:45:21.517Z,1002.67
2018-12-22T06:46:21.748Z,1002.66
2018-12-22T06:47:21.486Z,1002.59
2018-12-22T06:48:21.487Z,1002.65
2018-12-22T06:49:21.460Z,1002.70
2018-12-22T06:50:21.508Z,1002.64
2018-12-22T06:51:21.453Z,1002.66
2018-12-22T06:52:21.446Z,1002.71
2018-12-22T06:53:21.434Z,1002.70
2018-12-22T06:54:21.406Z,1002.70
2018-12-22T06:55:21.418Z,1002.69
2018-12-22T06:56:21.387Z,1002.86
2018-12-22T06:57:21.630Z,1002.87
2018-12-22T06:58:21.378Z,1002.99
2018-12-22T06:59:21.352Z,1002.99
2018-12-22T07:00:21.336Z,1003.06
2018-12-22T07:01:21.344Z,1003.04
2018-12-22T07:02:21.323Z,1003.10
2018-12-22T07:03:21.334Z,1003.19
2018-12-22T07:04:21.319Z,1003.29
2018-12-22T07:05:21.549Z,1003.34
2018-12-22T07:06:21.284Z,1003.28
2018-12-22T07:07:21.261Z,1003.25
2018-12-22T07:08:21.331Z,1003.30
2018-12-22T07:09:21.525Z,1003.52
2018-12-22T07:10:21.232Z,1003.26
2018-12-22T07:11:21.222Z,1003.43
2018-12-22T07:12:21.326Z,1003.53
2018-12-22T07:13:21.220Z,1003.74
2018-12-22T07:14:21.533Z,1003.73
2018-12-22T07:15:21.173Z,1003.49
2018-12-22T07:16:21.162Z,1003.40
2018-12-22T07:17:21.157Z,1003.48
2018-12-22T07:18:21.155Z,1003.46
2018-12-22T07:19:21.139Z,1003.45
2018-12-22T07:20:21.136Z,1003.60
2018-12-22T07:21:21.111Z,1003.54
2018-12-22T07:22:21.098Z,1003.55
2018-12-22T07:23:21.140Z,1003.56
2018-12-22T07:24:21.341Z,1003.65
2018-12-22T07:25:21.068Z,1003.65
2018-12-22T07:26:21.071Z,1003.62
2018-12-22T07:27:21.044Z,1003.67
2018-12-22T07:28:21.050Z,1003.68
2018-12-22T07:29:21.275Z,1003.77
2018-12-22T07:30:26.212Z,1003.85
2018-12-22T07:31:21.040Z,1003.91
2018-12-22T07:32:21.301Z,1003.95
2018-12-22T07:33:21.000Z,1003.91
2018-12-22T07:34:20.974Z,1003.96
2018-12-22T07:35:20.953Z,1003.86
2018-12-22T07:36:21.444Z,1003.79
2018-12-22T07:37:20.938Z,1003.85
2018-12-22T07:38:20.953Z,1003.94
2018-12-22T07:39:20.918Z,1003.92
2018-12-22T07:40:20.902Z,1003.96
2018-12-22T07:41:20.895Z,1003.98
2018-12-22T07:42:20.880Z,1003.89
2018-12-22T07:43:20.926Z,1003.82
2018-12-22T07:44:21.123Z,1003.79
2018-12-22T07:45:20.849Z,1003.87
2018-12-22T07:46:21.087Z,1003.88
2018-12-22T07:47:20.825Z,1003.89
2018-12-22T07:48:20.833Z,1004.06
2018-12-22T07:49:20.908Z,1004.09
2018-12-22T07:50:20.820Z,1004.15
2018-12-22T07:51:20.794Z,1004.11
2018-12-22T07:52:20.780Z,1004.17
2018-12-22T07:53:20.780Z,1004.24
2018-12-22T07:54:20.754Z,1004.30
2018-12-22T07:55:20.739Z,1004.31
2018-12-22T07:56:20.981Z,1004.26
2018-12-22T07:57:20.738Z,1004.41
2018-12-22T07:58:20.719Z,1004.45
2018-12-22T07:59:20.709Z,1004.42
2018-12-22T08:00:20.804Z,1004.35
2018-12-22T08:01:20.679Z,1004.42
2018-12-22T08:02:20.960Z,1004.45
2018-12-22T08:03:20.654Z,1004.54
2018-12-22T08:04:20.679Z,1004.48
2018-12-22T08:05:20.641Z,1004.53
2018-12-22T08:06:20.627Z,1004.56
2018-12-22T08:07:20.621Z,1004.67
2018-12-22T08:08:20.891Z,1004.65
2018-12-22T08:09:20.636Z,1004.66
2018-12-22T08:10:20.579Z,1004.70
2018-12-22T08:11:20.567Z,1004.71
2018-12-22T08:12:20.600Z,1004.74
2018-12-22T08:13:20.549Z,1004.73
2018-12-22T08:14:20.548Z,1004.80
2018-12-22T08:15:20.535Z,1004.82
2018-12-22T08:16:20.523Z,1004.78
2018-12-22T08:17:20.503Z,1004.92
2018-12-22T08:18:20.501Z,1004.93
2018-12-22T08:19:20.741Z,1005.00
2018-12-22T08:20:20.476Z,1005.03
2018-12-22T08:21:20.496Z,1005.03
2018-12-22T08:22:20.446Z,1005.10
2018-12-22T08:23:20.437Z,1005.08
2018-12-22T08:24:20.699Z,1005.09
2018-12-22T08:25:20.413Z,1005.13
2018-12-22T08:26:20.521Z,1005.18
2018-12-22T08:27:20.394Z,1005.20
2018-12-22T08:28:20.386Z,1005.17
2018-12-22T08:29:20.400Z,1005.30
2018-12-22T08:30:20.424Z,1005.23
2018-12-22T08:31:20.546Z,1005.28
2018-12-22T08:32:20.600Z,1005.33
2018-12-22T08:33:20.344Z,1005.49
2018-12-22T08:34:20.332Z,1005.53
2018-12-22T08:35:20.308Z,1005.54
2018-12-22T08:36:20.308Z,1005.57
2018-12-22T08:37:20.296Z,1005.63
2018-12-22T08:38:20.286Z,1005.61
2018-12-22T08:39:20.528Z,1005.64
2018-12-22T08:40:20.252Z,1005.59
2018-12-22T08:41:20.233Z,1005.73
2018-12-22T08:42:20.300Z,1005.73
2018-12-22T08:43:20.209Z,1005.73
2018-12-22T08:44:20.482Z,1005.79
2018-12-22T08:45:20.455Z,1005.75
2018-12-22T08:46:20.433Z,1005.80
2018-12-22T08:47:20.166Z,1005.77
2018-12-22T08:48:20.199Z,1005.93
2018-12-22T08:49:20.166Z,1005.93
2018-12-22T08:50:20.141Z,1005.89
2018-12-22T08:51:20.131Z,1005.86
2018-12-22T08:52:20.119Z,1006.00
2018-12-22T08:53:20.202Z,1006.00
2018-12-22T08:54:20.360Z,1006.00
2018-12-22T08:55:20.079Z,1006.06
2018-12-22T08:56:20.082Z,1006.04
2018-12-22T08:57:20.074Z,1006.11
2018-12-22T08:58:20.057Z,1006.07
2018-12-22T08:59:20.067Z,1006.15
2018-12-22T09:00:20.033Z,1006.08
2018-12-22T09:01:20.118Z,1006.17
2018-12-22T09:02:20.028Z,1006.17
2018-12-22T09:03:20.001Z,1006.10
2018-12-22T09:04:20.005Z,1006.09
2018-12-22T09:05:20.008Z,1006.15
2018-12-22T09:06:19.977Z,1006.21
2018-12-22T09:07:19.954Z,1006.23
2018-12-22T09:08:19.937Z,1006.25
2018-12-22T09:09:19.944Z,1006.30
2018-12-22T09:10:20.174Z,1006.34
2018-12-22T09:11:20.158Z,1006.33
2018-12-22T09:12:19.917Z,1006.34
2018-12-22T09:13:20.975Z,1006.39
2018-12-22T09:14:19.910Z,1006.39
2018-12-22T09:15:19.873Z,1006.43
2018-12-22T09:16:19.851Z,1006.35
2018-12-22T09:17:19.835Z,1006.47
2018-12-22T09:18:19.823Z,1006.48
2018-12-22T09:19:19.863Z,1006.55
2018-12-22T09:20:19.813Z,1006.66
2018-12-22T09:21:19.814Z,1006.58
2018-12-22T09:22:19.781Z,1006.54
2018-12-22T09:23:20.035Z,1006.65
2018-12-22T09:24:19.771Z,1006.64
2018-12-22T09:25:20.014Z,1006.75
2018-12-22T09:26:19.998Z,1006.67
2018-12-22T09:27:19.999Z,1006.69
2018-12-22T09:28:19.719Z,1006.64
2018-12-22T09:29:19.766Z,1006.66
2018-12-22T09:30:19.966Z,1006.77
2018-12-22T09:31:19.683Z,1006.75
2018-12-22T09:32:19.938Z,1006.64
2018-12-22T09:33:19.665Z,1006.63
2018-12-22T09:34:19.903Z,1006.67
2018-12-22T09:35:19.658Z,1006.71
2018-12-22T09:36:19.888Z,1006.74
2018-12-22T09:37:19.618Z,1006.79
2018-12-22T09:38:19.657Z,1006.77
2018-12-22T09:39:19.610Z,1006.89
2018-12-22T09:40:19.608Z,1006.83
2018-12-22T09:41:19.585Z,1006.75
2018-12-22T09:42:19.559Z,1006.74
2018-12-22T09:43:19.549Z,1006.76
2018-12-22T09:44:19.540Z,1006.82
2018-12-22T09:45:19.564Z,1006.86
2018-12-22T09:46:19.521Z,1006.88
2018-12-22T09:47:19.757Z,1007.02
2018-12-22T09:48:19.504Z,1006.98
2018-12-22T09:49:19.552Z,1007.02
2018-12-22T09:50:19.484Z,1007.07
2018-12-22T09:51:19.467Z,1007.10
2018-12-22T09:52:19.477Z,1007.04
2018-12-22T09:53:19.442Z,1007.00
2018-12-22T09:54:19.424Z,1007.10
2018-12-22T09:55:19.431Z,1007.04
2018-12-22T09:56:19.413Z,1007.09
2018-12-22T09:57:19.393Z,1007.02
2018-12-22T09:58:19.392Z,1007.03
2018-12-22T09:59:19.373Z,1007.07
2018-12-22T10:00:19.750Z,1007.05
2018-12-22T10:01:20.003Z,1007.07
2018-12-22T10:02:19.611Z,1007.07
2018-12-22T10:03:19.331Z,1007.12
2018-12-22T10:04:19.567Z,1007.09
2018-12-22T10:05:19.325Z,1007.14
2018-12-22T10:06:19.296Z,1007.12
2018-12-22T10:07:19.298Z,1007.10
2018-12-22T10:08:19.337Z,1007.12
2018-12-22T10:09:19.272Z,1007.18
2018-12-22T10:10:19.262Z,1007.14
2018-12-22T10:11:19.246Z,1007.12
2018-12-22T10:12:19.232Z,1007.17
2018-12-22T10:13:19.224Z,1007.14
2018-12-22T10:14:19.214Z,1007.24
2018-12-22T10:15:19.217Z,1007.26
2018-12-22T10:16:19.712Z,1007.17
2018-12-22T10:17:19.431Z,1007.22
2018-12-22T10:18:19.443Z,1007.31
2018-12-22T10:19:19.185Z,1007.32
2018-12-22T10:20:19.153Z,1007.44
2018-12-22T10:21:19.134Z,1007.44
2018-12-22T10:22:19.122Z,1007.39
2018-12-22T10:23:19.111Z,1007.35
2018-12-22T10:24:19.094Z,1007.40
2018-12-22T10:25:19.102Z,1007.41
2018-12-22T10:26:19.357Z,1007.49
2018-12-22T10:27:19.070Z,1007.41
2018-12-22T10:28:19.064Z,1007.42
2018-12-22T10:29:19.054Z,1007.45
2018-12-22T10:30:19.049Z,1007.40
2018-12-22T10:31:19.030Z,1007.36
2018-12-22T10:32:19.007Z,1007.41
2018-12-22T10:33:19.004Z,1007.38
2018-12-22T10:34:19.007Z,1007.46
2018-12-22T10:35:18.993Z,1007.43
2018-12-22T10:36:18.965Z,1007.44
2018-12-22T10:37:19.011Z,1007.46
2018-12-22T10:38:18.967Z,1007.45
2018-12-22T10:39:18.959Z,1007.48
2018-12-22T10:40:18.935Z,1007.53
2018-12-22T10:41:18.911Z,1007.45
2018-12-22T10:42:18.949Z,1007.45
2018-12-22T10:43:19.138Z,1007.51
2018-12-22T10:44:18.905Z,1007.55
2018-12-22T10:45:18.863Z,1007.50
2018-12-22T10:46:18.858Z,1007.56
2018-12-22T10:47:19.930Z,1007.43
2018-12-22T10:48:18.839Z,1007.54
2018-12-22T10:49:18.846Z,1007.49
2018-12-22T10:50:18.834Z,1007.53
2018-12-22T10:51:24.264Z,1007.49
2018-12-22T10:52:18.801Z,1007.51
2018-12-22T10:53:19.032Z,1007.50
2018-12-22T10:54:18.774Z,1007.55
2018-12-22T10:55:18.986Z,1007.55
2018-12-22T10:56:19.080Z,1007.60
2018-12-22T10:57:18.739Z,1007.60
2018-12-22T10:58:18.720Z,1007.68
2018-12-22T10:59:18.714Z,1007.68
2018-12-22T11:00:18.719Z,1007.64
2018-12-22T11:01:26.163Z,1007.69
2018-12-22T11:02:18.710Z,1007.67
2018-12-22T11:03:18.923Z,1007.72
2018-12-22T11:04:18.930Z,1007.70
2018-12-22T11:05:18.700Z,1007.70
2018-12-22T11:06:18.652Z,1007.73
2018-12-22T11:07:18.875Z,1007.71
2018-12-22T11:08:18.618Z,1007.75
2018-12-22T11:09:18.651Z,1007.75
2018-12-22T11:10:18.613Z,1007.77
2018-12-22T11:11:18.600Z,1007.75
2018-12-22T11:12:18.882Z,1007.68
2018-12-22T11:13:18.813Z,1007.73
2018-12-22T11:14:18.551Z,1007.73
2018-12-22T11:15:18.592Z,1007.75
2018-12-22T11:16:18.624Z,1007.72
2018-12-22T11:17:18.518Z,1007.76
2018-12-22T11:18:18.514Z,1007.75
2018-12-22T11:19:18.548Z,1007.73
2018-12-22T11:20:18.522Z,1007.73
2018-12-22T11:21:18.479Z,1007.75
2018-12-22T11:22:18.483Z,1007.73
2018-12-22T11:23:20.611Z,1007.71
2018-12-22T11:24:18.449Z,1007.75
2018-12-22T11:25:18.430Z,1007.72
2018-12-22T11:26:18.698Z,1007.75
2018-12-22T11:27:18.415Z,1007.80
2018-12-22T11:28:18.397Z,1007.82
2018-12-22T11:29:18.379Z,1007.73
2018-12-22T11:30:18.631Z,1007.81
2018-12-22T11:31:18.625Z,1007.73
2018-12-22T11:32:18.354Z,1007.76
2018-12-22T11:33:18.336Z,1007.75
2018-12-22T11:34:18.326Z,1007.74
2018-12-22T11:35:18.568Z,1007.78
2018-12-22T11:36:18.572Z,1007.83
2018-12-22T11:37:18.347Z,1007.79
2018-12-22T11:38:18.289Z,1007.82
2018-12-22T11:39:18.531Z,1007.91
2018-12-22T11:40:18.865Z,1007.88
2018-12-22T11:41:18.275Z,1007.89
2018-12-22T11:42:18.243Z,1007.90
2018-12-22T11:43:18.224Z,1007.90
2018-12-22T11:44:18.215Z,1007.90
2018-12-22T11:45:18.227Z,1007.92
2018-12-22T11:46:18.469Z,1007.88
2018-12-22T11:47:18.188Z,1007.88
2018-12-22T11:48:18.171Z,1007.91
2018-12-22T11:49:18.163Z,1007.93
2018-12-22T11:50:18.159Z,1007.95
2018-12-22T11:51:18.170Z,1007.86
2018-12-22T11:52:18.399Z,1007.86
2018-12-22T11:53:18.370Z,1007.89
2018-12-22T11:54:18.109Z,1007.91
2018-12-22T11:55:18.100Z,1007.86
2018-12-22T11:56:18.107Z,1007.83
2018-12-22T11:57:18.339Z,1007.87
2018-12-22T11:58:18.074Z,1007.84
2018-12-22T11:59:18.059Z,1007.81
2018-12-22T12:00:18.066Z,1007.91
2018-12-22T12:01:18.043Z,1007.83
2018-12-22T12:02:18.048Z,1007.83
2018-12-22T12:03:18.009Z,1007.83
2018-12-22T12:04:18.326Z,1007.83
2018-12-22T12:05:18.263Z,1007.89